LBSFEDSB

Guest
Details From LBSF - Sofia
To EDSB - Karlsruhe Baden Baden
Flight Number -
Tags Generated
Created
Modified
Stats Distance 737 nm / 1,365 km
Max Altitude 0 ft / 0 m
Waypoints 5
Social Downloads 0
Likes 0
Share VATSIM

Download

Looking for another format? Having issues loading an existing format? Contact us
Advertisement - Login to hide

Notes

Generated

Route

LBSF MGV VIW GAGSI EDSB

ID Type Via Altitude Latitude Longitude Leg Dist Tot Dist Heading (true) Name
O LBSF APT - 0 ft / 0 m 42.69826˚ 23.39477˚ - 0 nm - -
MGV NDB - 0 ft / 0 m 44.85339˚ 18.75055˚ 239 nm 239 nm 304° / 301° MCGOVERN NDB
VIW VOR - 0 ft / 0 m 46.69639˚ 13.91464˚ 230 nm 470 nm 300° / 297° VILLACH VOR-DME
GAGSI FIX - 0 ft / 0 m 48.62972˚ 8.46694˚ 248 nm 719 nm 300° / 296° -
O EDSB APT - 0 ft / 0 m 48.76783˚ 8.06994˚ 17 nm 736 nm 298° / 298° -

Altitude Profile

Advertisement - Login to hide

Weather


0- 5 10 15 20 25 30 35+ Temperature / ° C

Clouds and Precipitation
Forecast for 2018-05-26 00:00 UTC. Updated 4 minutes ago

Ground ~20,000 ft ~40,000 ft Winds

LBSF

Details ICAO LBSF (SOF)
Name Sofia
Region Bulgaria
Timezone Europe/Sofia (UTC+3.0)
Stats Elevation 1,741 ft / 531 m (AMSL)
Location 42.697130° 23.416722°
Runways 1
Magnetic Variation 4.980° E

METAR

LBSF 252300Z 00000KT CAVOK 14/12 Q1019 NOSIG

Decode

TAF

TAF LBSF 251700Z 2518/2618 VRB04KT 9999 SCT045 TEMPO 2518/2521 VRB18KT 3000 TSRA SCT033CB BKN040 TEMPO 2601/2605 3000 BR BKN007 BECMG 2609/2611 05014KT PROB30 TEMPO 2611/2616 5000 SHRA FEW030CB BKN040

Decode

Departure Runways

ID Width Length Bearing (true) Bearing (mag) Surface Threshold Offset Overrun Length
09 148 ft / 45 m 11,801 ft / 3,597 m 93.99° 89.01° Asphalt 984 ft / 300 m 525 ft / 160 m
27 148 ft / 45 m 11,801 ft / 3,597 m 274.02° 269.04° Asphalt 0 ft / 0 m 525 ft / 160 m

EDSB

Details ICAO EDSB (FKB)
Name Karlsruhe Baden Baden
Region Germany - Civil
Timezone Europe/Berlin (UTC+2.0)
Stats Elevation 408 ft / 124 m (AMSL)
Location 48.779257° 8.080642°
Runways 1
Magnetic Variation 2.279° E

METAR

EDSB 252250Z AUTO 03005KT 9999 // NCD 17/15 Q1017

Decode

TAF

TAF TAF EDSB 252202Z 2522/2618 CNL

Decode

Destination Runways

ID Width Length Bearing (true) Bearing (mag) Surface Threshold Offset Overrun Length
03 148 ft / 45 m 9,799 ft / 2,987 m 31.69° 29.41° Asphalt 830 ft / 253 m 115 ft / 35 m
21 148 ft / 45 m 9,799 ft / 2,987 m 211.70° 209.42° Asphalt 830 ft / 253 m 115 ft / 35 m

Approach Navaids

Runway Type Ident Frequency Range Bearing (true) Bearing (mag) Slope Elevation
03 Localiser IKBE 109.95 MHz 18 nm / 33 km 31.45° 29.17° - 408 ft / 124 m (AMSL)
03 Glidescope IKBE 109.95 MHz 10 nm / 19 km 31.70° 29.42° 3.00° 456 ft / 139 m (AMSL)
21 Localiser IKBW 108.75 MHz 18 nm / 33 km 211.94° 209.66° - 405 ft / 123 m (AMSL)
21 Glidescope IKBW 108.75 MHz 10 nm / 19 km 211.70° 209.42° 3.00° 408 ft / 124 m (AMSL)

Popular Alternatives